createdAt,value
2023-04-02T00:01:23.090Z,100333.06
2023-04-02T00:03:54.177Z,100329.84
2023-04-02T00:06:33.127Z,100337.09
2023-04-02T00:09:21.868Z,100351.31
2023-04-02T00:11:56.745Z,100354.03
2023-04-02T00:14:31.600Z,100351.91
2023-04-02T00:17:01.359Z,100355.94
2023-04-02T00:19:46.870Z,100366.63
2023-04-02T00:22:20.060Z,100366.03
2023-04-02T00:24:49.740Z,100367.88
2023-04-02T00:27:16.939Z,100375.03
2023-04-02T00:29:55.285Z,100370.22
2023-04-02T00:32:27.878Z,100378.38
2023-04-02T00:34:55.733Z,100377.53
2023-04-02T00:37:27.529Z,100378.78
2023-04-02T00:40:20.372Z,100376.53
2023-04-02T00:42:49.148Z,100393.13
2023-04-02T00:45:25.531Z,100394.81
2023-04-02T00:47:53.527Z,100403.19
2023-04-02T00:50:36.525Z,100403.19
2023-04-02T00:53:24.015Z,100407.22
2023-04-02T00:55:51.102Z,100420.44
2023-04-02T00:58:28.223Z,100419.41
2023-04-02T01:00:55.066Z,100420.88
2023-04-02T01:03:28.707Z,100417.72
2023-04-02T01:06:03.237Z,100410.81
2023-04-02T01:08:43.954Z,100418.34
2023-04-02T01:11:17.861Z,100423.78
2023-04-02T01:14:07.209Z,100424.41
2023-04-02T01:16:55.297Z,100420.03
2023-04-02T01:19:52.650Z,100422.94
2023-04-02T01:22:19.370Z,100431.53
2023-04-02T01:24:47.332Z,100421.91
2023-04-02T01:27:29.459Z,100428.38
2023-04-02T01:29:59.041Z,100437.00
2023-04-02T01:32:29.121Z,100435.47
2023-04-02T01:34:56.784Z,100446.41
2023-04-02T01:37:44.955Z,100448.28
2023-04-02T01:40:23.466Z,100450.63
2023-04-02T01:43:14.118Z,100450.41
2023-04-02T01:45:41.179Z,100459.88
2023-04-02T01:48:20.059Z,100453.16
2023-04-02T01:50:49.943Z,100454.41
2023-04-02T01:53:18.934Z,100454.84
2023-04-02T01:55:48.890Z,100450.44
2023-04-02T01:58:39.080Z,100459.88
2023-04-02T02:01:12.883Z,100453.16
2023-04-02T02:03:42.617Z,100467.00
2023-04-02T02:06:14.338Z,100465.31
2023-04-02T02:08:49.962Z,100469.09
2023-04-02T02:11:21.547Z,100469.94
2023-04-02T02:13:58.743Z,100473.91
2023-04-02T02:16:27.501Z,100486.72
2023-04-02T02:18:57.999Z,100489.22
2023-04-02T02:21:42.366Z,100487.53
2023-04-02T02:24:31.828Z,100495.31
2023-04-02T02:27:08.733Z,100492.81
2023-04-02T02:29:37.175Z,100492.81
2023-04-02T02:32:07.310Z,100507.06
2023-04-02T02:34:46.026Z,100506.84
2023-04-02T02:37:17.829Z,100511.25
2023-04-02T02:39:48.027Z,100515.88
2023-04-02T02:42:28.965Z,100514.81
2023-04-02T02:44:58.161Z,100510.22
2023-04-02T02:47:28.327Z,100522.38
2023-04-02T02:49:59.883Z,100514.00
2023-04-02T02:52:30.972Z,100520.94
2023-04-02T02:55:04.988Z,100526.38
2023-04-02T02:57:42.164Z,100522.41
2023-04-02T03:00:11.811Z,100522.59
2023-04-02T03:02:41.567Z,100530.78
2023-04-02T03:05:09.791Z,100534.56
2023-04-02T03:07:37.445Z,100533.28
2023-04-02T03:10:15.409Z,100536.03
2023-04-02T03:12:51.720Z,100539.59
2023-04-02T03:15:51.234Z,100548.81
2023-04-02T03:18:27.195Z,100543.59
2023-04-02T03:21:14.565Z,100551.13
2023-04-02T03:23:47.363Z,100551.97
2023-04-02T03:26:43.056Z,100562.47
2023-04-02T03:29:21.101Z,100567.50
2023-04-02T03:31:53.944Z,100565.84
2023-04-02T03:34:26.740Z,100573.56
2023-04-02T03:37:07.721Z,100577.56
2023-04-02T03:39:45.149Z,100584.50
2023-04-02T03:42:30.258Z,100584.91
2023-04-02T03:44:59.912Z,100591.41
2023-04-02T03:47:36.825Z,100592.66
2023-04-02T03:50:08.250Z,100591.63
2023-04-02T03:52:37.548Z,100594.53
2023-04-02T03:55:15.953Z,100605.44
2023-04-02T03:58:07.091Z,100607.13
2023-04-02T04:00:42.489Z,100611.34
2023-04-02T04:03:16.440Z,100610.69
2023-04-02T04:05:51.010Z,100618.44
2023-04-02T04:08:43.727Z,100617.00
2023-04-02T04:11:15.823Z,100614.69
2023-04-02T04:13:57.532Z,100618.47
2023-04-02T04:16:34.520Z,100616.38
2023-04-02T04:19:03.829Z,100625.59
2023-04-02T04:21:37.771Z,100619.31
2023-04-02T04:24:15.897Z,100622.66
2023-04-02T04:27:20.524Z,100630.41
2023-04-02T04:29:55.726Z,100631.03
2023-04-02T04:32:50.429Z,100639.63
2023-04-02T04:38:27.804Z,100636.88
2023-04-02T04:41:02.139Z,100641.69
2023-04-02T04:43:31.607Z,100649.66
2023-04-02T04:46:06.219Z,100642.31
2023-04-02T04:48:56.277Z,100651.59
2023-04-02T04:51:28.430Z,100649.88
2023-04-02T04:53:55.823Z,100655.69
2023-04-02T04:56:27.238Z,100658.41
2023-04-02T04:58:56.674Z,100665.91
2023-04-02T05:01:30.320Z,100672.44
2023-04-02T05:04:07.200Z,100672.47
2023-04-02T05:06:45.600Z,100678.31
2023-04-02T05:09:20.734Z,100678.53
2023-04-02T05:12:02.257Z,100689.44
2023-04-02T05:14:40.605Z,100692.16
2023-04-02T05:17:20.714Z,100694.88
2023-04-02T05:19:56.726Z,100705.16
2023-04-02T05:22:42.318Z,100707.69
2023-04-02T05:25:36.360Z,100704.78
2023-04-02T05:28:03.122Z,100710.84
2023-04-02T05:30:46.885Z,100710.63
2023-04-02T05:33:28.956Z,100717.75
2023-04-02T05:36:09.425Z,100722.59
2023-04-02T05:38:39.400Z,100727.81
2023-04-02T05:41:28.419Z,100732.81
2023-04-02T05:44:05.939Z,100731.38
2023-04-02T05:46:41.825Z,100736.22
2023-04-02T05:49:19.160Z,100743.38
2023-04-02T05:51:49.760Z,100748.00
2023-04-02T05:54:23.397Z,100750.47
2023-04-02T05:56:57.686Z,100750.66
2023-04-02T05:59:36.958Z,100749.16
2023-04-02T06:02:33.369Z,100746.66
2023-04-02T06:05:05.624Z,100771.16
2023-04-02T06:07:41.956Z,100766.69
2023-04-02T06:10:41.985Z,100775.44
2023-04-02T06:13:13.308Z,100779.00
2023-04-02T06:15:40.513Z,100777.28
2023-04-02T06:18:20.550Z,100782.31
2023-04-02T06:20:47.390Z,100786.88
2023-04-02T06:23:19.868Z,100784.53
2023-04-02T06:25:59.269Z,100792.06
2023-04-02T06:28:47.920Z,100799.59
2023-04-02T06:31:26.361Z,100808.19
2023-04-02T06:33:55.065Z,100811.38
2023-04-02T06:36:24.584Z,100810.91
2023-04-02T06:38:54.316Z,100822.22
2023-04-02T06:41:24.135Z,100820.94
2023-04-02T06:43:55.489Z,100830.13
2023-04-02T06:46:36.474Z,100826.31
2023-04-02T06:49:25.754Z,100845.25
2023-04-02T06:51:55.284Z,100857.19
2023-04-02T06:54:22.105Z,100872.47
2023-04-02T06:56:51.599Z,100867.03
2023-04-02T06:59:19.674Z,100865.88
2023-04-02T07:01:52.716Z,100875.19
2023-04-02T07:04:21.500Z,100878.13
2023-04-02T07:06:48.393Z,100881.16
2023-04-02T07:09:16.842Z,100885.00
2023-04-02T07:11:43.800Z,100894.47
2023-04-02T07:14:13.655Z,100901.19
2023-04-02T07:16:42.253Z,100901.59
2023-04-02T07:19:20.248Z,100902.03
2023-04-02T07:21:47.702Z,100907.88
2023-04-02T07:24:14.621Z,100910.78
2023-04-02T07:26:41.296Z,100907.94
2023-04-02T07:29:09.916Z,100907.53
2023-04-02T07:31:38.830Z,100899.91
2023-04-02T07:34:07.165Z,100911.84
2023-04-02T07:36:34.021Z,100907.88
2023-04-02T07:39:00.969Z,100914.69
2023-04-02T07:41:27.658Z,100928.47
2023-04-02T07:43:54.488Z,100939.38
2023-04-02T07:46:21.600Z,100931.34
2023-04-02T07:48:48.537Z,100937.38
2023-04-02T07:51:21.783Z,100943.41
2023-04-02T07:53:50.444Z,100946.22
2023-04-02T07:56:19.335Z,100950.66
2023-04-02T07:58:46.392Z,100940.69
2023-04-02T08:01:24.082Z,100942.94
2023-04-02T08:03:53.730Z,100950.97
2023-04-02T08:06:21.701Z,100945.03
2023-04-02T08:08:48.440Z,100951.06
2023-04-02T08:11:16.083Z,100954.91
2023-04-02T08:13:44.072Z,100958.66
2023-04-02T08:16:11.532Z,100962.16
2023-04-02T08:18:38.794Z,100967.47
2023-04-02T08:21:10.565Z,100973.81
2023-04-02T08:23:38.264Z,100974.53
2023-04-02T08:26:06.286Z,100975.66
2023-04-02T08:28:32.929Z,100979.94
2023-04-02T08:31:00.621Z,100980.31
2023-04-02T08:33:27.608Z,100981.16
2023-04-02T08:35:54.340Z,100979.41
2023-04-02T08:38:22.452Z,100984.97
2023-04-02T08:40:51.719Z,100994.06
2023-04-02T08:43:28.921Z,101003.78
2023-04-02T08:46:20.448Z,101020.38
2023-04-02T08:48:55.317Z,101013.72
2023-04-02T08:51:27.906Z,101015.84
2023-04-02T08:54:00.044Z,101010.47
2023-04-02T08:56:33.718Z,101021.19
2023-04-02T08:59:07.542Z,101024.75
2023-04-02T09:01:57.057Z,101021.28
2023-04-02T09:04:25.686Z,101017.75
2023-04-02T09:06:55.471Z,101024.00
2023-04-02T09:09:23.971Z,101030.94
2023-04-02T09:12:04.319Z,101030.56
2023-04-02T09:14:45.212Z,101044.81
2023-04-02T09:17:19.904Z,101054.44
2023-04-02T09:20:23.715Z,101056.03
2023-04-02T09:22:51.971Z,101059.81
2023-04-02T09:25:27.576Z,101061.13
2023-04-02T09:27:56.728Z,101058.50
2023-04-02T09:30:32.355Z,101068.56
2023-04-02T09:33:02.652Z,101071.34
2023-04-02T09:35:32.706Z,101080.78
2023-04-02T09:38:22.422Z,101075.78
2023-04-02T09:41:00.860Z,101075.13
2023-04-02T09:43:33.365Z,101075.91
2023-04-02T09:46:17.853Z,101075.59
2023-04-02T09:48:50.132Z,101078.09
2023-04-02T09:51:22.911Z,101080.91
2023-04-02T09:54:03.134Z,101080.25
2023-04-02T09:56:31.621Z,101082.00
2023-04-02T09:59:13.493Z,101087.56
2023-04-02T10:01:42.838Z,101087.88
2023-04-02T10:04:36.442Z,101103.22
2023-04-02T10:07:06.519Z,101103.47
2023-04-02T10:09:36.646Z,101098.63
2023-04-02T10:12:10.982Z,101111.66
2023-04-02T10:14:43.385Z,101100.97
2023-04-02T10:17:32.821Z,101105.84
2023-04-02T10:20:11.533Z,101102.75
2023-04-02T10:22:39.547Z,101116.06
2023-04-02T10:25:17.965Z,101120.44
2023-04-02T10:27:57.081Z,101119.16
2023-04-02T10:30:31.629Z,101126.97
2023-04-02T10:33:07.978Z,101125.22
2023-04-02T10:35:46.486Z,101133.59
2023-04-02T10:38:38.935Z,101141.31
2023-04-02T10:41:19.443Z,101147.41
2023-04-02T10:44:16.725Z,101150.34
2023-04-02T10:46:52.615Z,101154.88
2023-04-02T10:49:32.947Z,101168.09
2023-04-02T10:52:16.998Z,101167.78
2023-04-02T10:55:02.180Z,101158.53
2023-04-02T10:57:41.271Z,101164.59
2023-04-02T11:00:19.261Z,101171.94
2023-04-02T11:03:13.335Z,101179.03
2023-04-02T11:05:54.260Z,101174.78
2023-04-02T11:08:39.718Z,101177.34
2023-04-02T11:11:17.281Z,101177.84
2023-04-02T11:14:01.419Z,101179.94
2023-04-02T11:16:28.671Z,101183.00
2023-04-02T11:19:17.614Z,101185.88
2023-04-02T11:21:58.630Z,101198.09
2023-04-02T11:24:33.087Z,101197.25
2023-04-02T11:27:12.083Z,101199.13
2023-04-02T11:29:49.356Z,101191.19
2023-04-02T11:32:22.109Z,101188.56
2023-04-02T11:34:56.459Z,101189.97
2023-04-02T11:37:43.258Z,101196.19
2023-04-02T11:40:15.799Z,101191.38
2023-04-02T11:42:46.194Z,101202.28
2023-04-02T11:45:22.576Z,101201.09
2023-04-02T11:48:01.912Z,101207.44
2023-04-02T11:50:41.350Z,101212.69
2023-04-02T11:53:11.524Z,101212.31
2023-04-02T11:56:04.966Z,101230.69
2023-04-02T11:58:36.344Z,101215.81
2023-04-02T12:01:07.987Z,101218.31
2023-04-02T12:03:49.560Z,101219.47
2023-04-02T12:06:39.916Z,101221.16
2023-04-02T12:09:22.485Z,101217.50
2023-04-02T12:11:52.219Z,101219.63
2023-04-02T12:14:48.655Z,101224.25
2023-04-02T12:17:27.093Z,101225.81
2023-04-02T12:19:57.098Z,101225.59
2023-04-02T12:22:27.279Z,101224.84
2023-04-02T12:24:58.912Z,101229.19
2023-04-02T12:27:29.451Z,101231.00
2023-04-02T12:30:12.131Z,101228.94
2023-04-02T12:32:38.975Z,101232.97
2023-04-02T12:35:06.613Z,101234.81
2023-04-02T12:37:33.215Z,101232.31
2023-04-02T12:40:07.121Z,101238.44
2023-04-02T12:42:37.655Z,101237.75
2023-04-02T12:45:06.872Z,101234.50
2023-04-02T12:47:33.853Z,101234.50
2023-04-02T12:50:02.126Z,101232.44
2023-04-02T12:52:29.813Z,101234.59
2023-04-02T12:54:59.515Z,101235.84
2023-04-02T12:57:26.294Z,101233.13
2023-04-02T12:59:54.914Z,101227.66
2023-04-02T13:02:30.291Z,101239.22
2023-04-02T13:05:01.342Z,101242.38
2023-04-02T13:07:33.352Z,101227.84
2023-04-02T13:10:02.870Z,101235.59
2023-04-02T13:12:40.725Z,101229.56
2023-04-02T13:15:23.506Z,101223.69
2023-04-02T13:18:07.536Z,101221.38
2023-04-02T13:20:39.617Z,101226.00
2023-04-02T13:23:29.820Z,101215.25
2023-04-02T13:25:58.799Z,101222.38
2023-04-02T13:28:25.976Z,101221.19
2023-04-02T13:30:52.604Z,101221.06
2023-04-02T13:33:20.474Z,101218.13
2023-04-02T13:35:47.167Z,101206.16
2023-04-02T13:38:13.805Z,101208.69
2023-04-02T13:40:40.415Z,101197.78
2023-04-02T13:43:10.046Z,101199.69
2023-04-02T13:45:39.283Z,101192.31
2023-04-02T13:48:07.294Z,101192.53
2023-04-02T13:50:36.109Z,101200.09
2023-04-02T13:53:10.452Z,101185.38
2023-04-02T13:55:40.794Z,101187.91
2023-04-02T13:58:07.622Z,101187.47
2023-04-02T14:00:37.841Z,101213.16
2023-04-02T14:03:11.145Z,101203.69
2023-04-02T14:05:48.187Z,101212.13
2023-04-02T14:08:28.757Z,101214.00
2023-04-02T14:11:12.841Z,101211.88
2023-04-02T14:13:48.763Z,101212.53
2023-04-02T14:16:36.662Z,101206.22
2023-04-02T14:19:18.014Z,101204.31
2023-04-02T14:22:00.269Z,101203.47
2023-04-02T14:24:47.646Z,101204.72
2023-04-02T14:27:31.937Z,101198.19
2023-04-02T14:30:04.289Z,101194.22
2023-04-02T14:32:48.568Z,101195.03
2023-04-02T14:35:36.419Z,101186.63
2023-04-02T14:38:22.777Z,101183.25
2023-04-02T14:40:56.615Z,101198.00
2023-04-02T14:43:27.904Z,101188.72
2023-04-02T14:46:02.015Z,101186.22
2023-04-02T14:49:00.450Z,101186.84
2023-04-02T14:51:38.098Z,101175.25
2023-04-02T14:54:15.360Z,101176.31
2023-04-02T14:56:52.770Z,101178.22
2023-04-02T14:59:42.918Z,101165.13
2023-04-02T15:02:20.892Z,101165.56
2023-04-02T15:04:58.537Z,101172.09
2023-04-02T15:07:33.844Z,101175.69
2023-04-02T15:10:29.035Z,101169.38
2023-04-02T15:12:57.488Z,101171.25
2023-04-02T15:15:43.126Z,101175.03
2023-04-02T15:18:13.481Z,101169.56
2023-04-02T15:20:45.560Z,101185.34
2023-04-02T15:23:30.883Z,101171.88
2023-04-02T15:26:32.635Z,101183.25
2023-04-02T15:29:15.879Z,101167.22
2023-04-02T15:31:50.547Z,101190.44
2023-04-02T15:34:29.010Z,101167.47
2023-04-02T15:37:12.820Z,101165.78
2023-04-02T15:40:01.210Z,101166.59
2023-04-02T15:42:36.685Z,101168.91
2023-04-02T15:45:12.260Z,101171.44
2023-04-02T15:47:51.060Z,101175.88
2023-04-02T15:50:26.703Z,101177.56
2023-04-02T15:53:23.706Z,101188.72
2023-04-02T15:56:02.269Z,101185.97
2023-04-02T15:58:52.016Z,101176.28
2023-04-02T16:01:57.090Z,101188.50
2023-04-02T16:04:51.169Z,101188.53
2023-04-02T16:07:25.216Z,101195.47
2023-04-02T16:10:14.120Z,101201.78
2023-04-02T16:12:41.905Z,101193.78
2023-04-02T16:15:24.253Z,101204.31
2023-04-02T16:18:27.554Z,101182.41
2023-04-02T16:20:57.127Z,101191.88
2023-04-02T16:23:35.201Z,101192.94
2023-04-02T16:26:28.153Z,101193.38
2023-04-02T16:29:16.792Z,101195.47
2023-04-02T16:31:55.985Z,101196.97
2023-04-02T16:34:32.119Z,101196.31
2023-04-02T16:37:06.448Z,101207.91
2023-04-02T16:39:45.688Z,101210.00
2023-04-02T16:42:20.640Z,101213.59
2023-04-02T16:44:59.139Z,101210.84
2023-04-02T16:47:40.704Z,101212.97
2023-04-02T16:50:10.065Z,101221.19
2023-04-02T16:52:49.082Z,101220.34
2023-04-02T16:55:44.235Z,101223.69
2023-04-02T16:58:31.871Z,101227.28
2023-04-02T17:01:12.561Z,101232.75
2023-04-02T17:04:00.754Z,101225.59
2023-04-02T17:06:43.769Z,101232.75
2023-04-02T17:09:22.308Z,101238.03
2023-04-02T17:11:49.067Z,101233.41
2023-04-02T17:14:24.841Z,101237.41
2023-04-02T17:16:57.352Z,101239.50
2023-04-02T17:19:27.117Z,101243.69
2023-04-02T17:21:57.950Z,101243.28
2023-04-02T17:24:29.797Z,101249.19
2023-04-02T17:27:07.101Z,101256.75
2023-04-02T17:29:37.870Z,101263.72
2023-04-02T17:32:12.266Z,101268.13
2023-04-02T17:34:38.939Z,101262.44
2023-04-02T17:37:42.836Z,101259.94
2023-04-02T17:40:47.872Z,101278.47
2023-04-02T17:43:46.106Z,101276.78
2023-04-02T17:46:39.436Z,101266.03
2023-04-02T17:49:23.189Z,101277.84
2023-04-02T17:52:05.617Z,101280.13
2023-04-02T17:55:05.409Z,101277.84
2023-04-02T17:57:55.288Z,101276.75
2023-04-02T18:00:30.947Z,101282.22
2023-04-02T18:02:58.129Z,101287.88
2023-04-02T18:05:35.415Z,101294.38
2023-04-02T18:08:07.402Z,101297.50
2023-04-02T18:11:01.758Z,101305.66
2023-04-02T18:13:37.440Z,101303.09
2023-04-02T18:16:25.376Z,101308.88
2023-04-02T18:18:52.005Z,101316.22
2023-04-02T18:21:24.716Z,101312.19
2023-04-02T18:23:58.608Z,101314.47
2023-04-02T18:26:32.836Z,101311.22
2023-04-02T18:29:11.379Z,101313.72
2023-04-02T18:31:52.619Z,101313.28
2023-04-02T18:34:43.220Z,101307.38
2023-04-02T18:37:44.530Z,101308.56
2023-04-02T18:40:36.427Z,101316.06
2023-04-02T18:43:15.500Z,101319.00
2023-04-02T18:46:01.094Z,101317.25
2023-04-02T18:48:46.799Z,101329.41
2023-04-02T18:51:23.256Z,101332.28
2023-04-02T18:54:03.910Z,101336.47
2023-04-02T18:56:31.826Z,101344.19
2023-04-02T18:59:06.586Z,101346.47
2023-04-02T19:01:47.526Z,101350.81
2023-04-02T19:04:17.112Z,101352.47
2023-04-02T19:06:52.505Z,101349.44
2023-04-02T19:09:24.601Z,101344.56
2023-04-02T19:11:53.166Z,101349.59
2023-04-02T19:14:21.480Z,101361.53
2023-04-02T19:16:48.057Z,101365.03
2023-04-02T19:19:17.279Z,101369.19
2023-04-02T19:22:10.708Z,101369.97
2023-04-02T19:24:43.415Z,101373.06
2023-04-02T19:27:25.035Z,101375.31
2023-04-02T19:30:15.463Z,101368.38
2023-04-02T19:32:50.979Z,101367.66
2023-04-02T19:35:32.640Z,101379.13
2023-04-02T19:38:16.264Z,101375.34
2023-04-02T19:41:01.309Z,101383.91
2023-04-02T19:43:28.029Z,101383.47
2023-04-02T19:45:55.529Z,101391.75
2023-04-02T19:48:26.620Z,101395.03
2023-04-02T19:50:53.792Z,101395.41
2023-04-02T19:53:20.619Z,101402.28
2023-04-02T19:55:47.315Z,101406.81
2023-04-02T19:58:28.884Z,101402.06
2023-04-02T20:00:56.184Z,101405.19
2023-04-02T20:03:25.693Z,101411.84
2023-04-02T20:05:52.854Z,101408.66
2023-04-02T20:08:19.502Z,101408.94
2023-04-02T20:10:46.219Z,101418.78
2023-04-02T20:13:12.837Z,101414.94
2023-04-02T20:15:41.129Z,101428.28
2023-04-02T20:18:09.442Z,101433.72
2023-04-02T20:20:37.833Z,101432.09
2023-04-02T20:23:05.229Z,101438.81
2023-04-02T20:25:32.007Z,101441.69
2023-04-02T20:28:00.901Z,101437.00
2023-04-02T20:30:27.671Z,101444.03
2023-04-02T20:32:55.747Z,101447.28
2023-04-02T20:35:22.560Z,101449.19
2023-04-02T20:37:49.236Z,101448.84
2023-04-02T20:40:15.899Z,101458.06
2023-04-02T20:42:42.586Z,101461.50
2023-04-02T20:45:09.968Z,101460.53
2023-04-02T20:47:36.650Z,101468.38
2023-04-02T20:50:03.482Z,101466.59
2023-04-02T20:52:30.418Z,101465.41
2023-04-02T20:54:57.496Z,101478.38
2023-04-02T20:57:26.085Z,101467.38
2023-04-02T20:59:53.020Z,101477.56
2023-04-02T21:02:19.649Z,101476.41
2023-04-02T21:04:46.277Z,101478.28
2023-04-02T21:07:12.944Z,101467.94
2023-04-02T21:09:39.540Z,101482.06
2023-04-02T21:12:06.585Z,101473.41
2023-04-02T21:14:37.809Z,101479.03
2023-04-02T21:17:06.105Z,101476.66
2023-04-02T21:19:33.141Z,101475.31
2023-04-02T21:21:59.827Z,101478.06
2023-04-02T21:24:26.516Z,101480.13
2023-04-02T21:26:53.316Z,101481.81
2023-04-02T21:29:19.922Z,101481.16
2023-04-02T21:31:46.639Z,101472.69
2023-04-02T21:34:15.773Z,101481.84
2023-04-02T21:36:48.310Z,101486.81
2023-04-02T21:39:23.556Z,101485.59
2023-04-02T21:41:52.161Z,101488.31
2023-04-02T21:44:23.448Z,101495.16
2023-04-02T21:46:53.030Z,101486.47
2023-04-02T21:49:25.521Z,101491.22
2023-04-02T21:51:52.694Z,101488.34
2023-04-02T21:54:19.927Z,101493.47
2023-04-02T21:56:47.159Z,101493.63
2023-04-02T21:59:15.790Z,101499.91
2023-04-02T22:01:45.897Z,101492.63
2023-04-02T22:04:18.859Z,101494.47
2023-04-02T22:06:46.278Z,101492.44
2023-04-02T22:09:16.227Z,101493.13
2023-04-02T22:11:49.385Z,101495.00
2023-04-02T22:14:17.109Z,101492.09
2023-04-02T22:16:44.571Z,101498.72
2023-04-02T22:19:14.094Z,101496.88
2023-04-02T22:21:41.486Z,101490.91
2023-04-02T22:24:11.142Z,101491.09
2023-04-02T22:26:38.661Z,101489.22
2023-04-02T22:29:05.421Z,101486.66
2023-04-02T22:31:35.671Z,101488.38
2023-04-02T22:34:04.896Z,101491.59
2023-04-02T22:36:32.046Z,101491.41
2023-04-02T22:38:59.892Z,101489.56
2023-04-02T22:41:28.921Z,101491.09
2023-04-02T22:43:56.799Z,101489.91
2023-04-02T22:46:24.884Z,101498.56
2023-04-02T22:48:52.162Z,101490.72
2023-04-02T22:51:20.861Z,101497.00
2023-04-02T22:53:48.477Z,101493.78
2023-04-02T22:56:17.615Z,101498.84
2023-04-02T22:58:45.000Z,101490.38
2023-04-02T23:01:15.904Z,101490.03
2023-04-02T23:03:42.639Z,101491.91
2023-04-02T23:06:14.147Z,101497.13
2023-04-02T23:08:41.582Z,101497.00
2023-04-02T23:11:22.073Z,101488.34
2023-04-02T23:13:51.344Z,101489.69
2023-04-02T23:16:19.053Z,101490.22
2023-04-02T23:18:48.108Z,101485.25
2023-04-02T23:21:16.442Z,101487.13
2023-04-02T23:23:43.531Z,101487.97
2023-04-02T23:26:13.134Z,101486.59
2023-04-02T23:28:40.635Z,101484.06
2023-04-02T23:31:09.624Z,101483.53
2023-04-02T23:33:36.308Z,101479.97
2023-04-02T23:36:19.720Z,101490.28
2023-04-02T23:38:46.633Z,101487.91
2023-04-02T23:41:17.309Z,101492.16
2023-04-02T23:43:44.260Z,101496.19
2023-04-02T23:46:11.632Z,101492.78
2023-04-02T23:48:38.357Z,101487.56
2023-04-02T23:51:05.834Z,101485.00
2023-04-02T23:53:33.871Z,101485.19
2023-04-02T23:56:00.643Z,101484.44
2023-04-02T23:58:29.328Z,101475.97
